sensor_id;sensor_type;location;lat;lon;timestamp;P1;durP1;ratioP1;P2;durP2;ratioP2
28174;SDS011;59417;44.788;10.334;2022-10-31T00:01:15;12.68;;;9.40;;
28174;SDS011;59417;44.788;10.334;2022-10-31T00:03:42;18.27;;;11.77;;
28174;SDS011;59417;44.788;10.334;2022-10-31T00:06:08;16.10;;;9.38;;
28174;SDS011;59417;44.788;10.334;2022-10-31T00:08:34;15.77;;;8.82;;
28174;SDS011;59417;44.788;10.334;2022-10-31T00:11:00;14.68;;;9.25;;
28174;SDS011;59417;44.788;10.334;2022-10-31T00:13:26;16.33;;;9.20;;
28174;SDS011;59417;44.788;10.334;2022-10-31T00:15:51;16.25;;;8.18;;
28174;SDS011;59417;44.788;10.334;2022-10-31T00:18:17;16.13;;;8.68;;
28174;SDS011;59417;44.788;10.334;2022-10-31T00:20:42;16.58;;;8.50;;
28174;SDS011;59417;44.788;10.334;2022-10-31T00:23:08;9.52;;;7.43;;
28174;SDS011;59417;44.788;10.334;2022-10-31T00:25:36;14.05;;;8.38;;
28174;SDS011;59417;44.788;10.334;2022-10-31T00:28:04;15.77;;;8.18;;
28174;SDS011;59417;44.788;10.334;2022-10-31T00:30:31;16.13;;;8.73;;
28174;SDS011;59417;44.788;10.334;2022-10-31T00:32:57;12.02;;;8.15;;
28174;SDS011;59417;44.788;10.334;2022-10-31T00:35:23;14.70;;;8.65;;
28174;SDS011;59417;44.788;10.334;2022-10-31T00:37:49;15.98;;;8.82;;
28174;SDS011;59417;44.788;10.334;2022-10-31T00:40:15;12.50;;;8.18;;
28174;SDS011;59417;44.788;10.334;2022-10-31T00:42:41;15.57;;;7.97;;
28174;SDS011;59417;44.788;10.334;2022-10-31T00:45:07;13.85;;;8.45;;
28174;SDS011;59417;44.788;10.334;2022-10-31T00:47:34;13.25;;;8.43;;
28174;SDS011;59417;44.788;10.334;2022-10-31T00:50:00;16.42;;;8.57;;
28174;SDS011;59417;44.788;10.334;2022-10-31T00:52:25;12.57;;;8.18;;
28174;SDS011;59417;44.788;10.334;2022-10-31T00:54:51;12.15;;;7.78;;
28174;SDS011;59417;44.788;10.334;2022-10-31T00:57:17;12.35;;;7.93;;
28174;SDS011;59417;44.788;10.334;2022-10-31T00:59:42;14.65;;;8.35;;
28174;SDS011;59417;44.788;10.334;2022-10-31T01:02:08;13.70;;;8.48;;
28174;SDS011;59417;44.788;10.334;2022-10-31T01:04:34;14.95;;;8.35;;
28174;SDS011;59417;44.788;10.334;2022-10-31T01:06:59;13.35;;;8.18;;
28174;SDS011;59417;44.788;10.334;2022-10-31T01:09:25;12.52;;;8.93;;
28174;SDS011;59417;44.788;10.334;2022-10-31T01:11:50;13.10;;;7.97;;
28174;SDS011;59417;44.788;10.334;2022-10-31T01:14:16;11.88;;;7.82;;
28174;SDS011;59417;44.788;10.334;2022-10-31T01:16:42;12.52;;;7.90;;
28174;SDS011;59417;44.788;10.334;2022-10-31T01:19:07;13.15;;;8.10;;
28174;SDS011;59417;44.788;10.334;2022-10-31T01:21:33;13.45;;;8.07;;
28174;SDS011;59417;44.788;10.334;2022-10-31T01:23:58;19.70;;;8.07;;
28174;SDS011;59417;44.788;10.334;2022-10-31T01:26:25;15.60;;;8.18;;
28174;SDS011;59417;44.788;10.334;2022-10-31T01:28:53;12.32;;;7.47;;
28174;SDS011;59417;44.788;10.334;2022-10-31T01:31:24;13.77;;;7.57;;
28174;SDS011;59417;44.788;10.334;2022-10-31T01:33:52;11.27;;;7.85;;
28174;SDS011;59417;44.788;10.334;2022-10-31T01:36:19;13.38;;;8.10;;
28174;SDS011;59417;44.788;10.334;2022-10-31T01:38:50;13.23;;;7.00;;
28174;SDS011;59417;44.788;10.334;2022-10-31T01:41:18;11.13;;;7.30;;
28174;SDS011;59417;44.788;10.334;2022-10-31T01:43:47;12.40;;;6.90;;
28174;SDS011;59417;44.788;10.334;2022-10-31T01:46:25;14.07;;;7.22;;
28174;SDS011;59417;44.788;10.334;2022-10-31T01:48:54;10.13;;;6.75;;
28174;SDS011;59417;44.788;10.334;2022-10-31T01:51:24;11.80;;;7.07;;
28174;SDS011;59417;44.788;10.334;2022-10-31T01:53:56;12.18;;;7.03;;
28174;SDS011;59417;44.788;10.334;2022-10-31T01:56:25;9.77;;;7.22;;
28174;SDS011;59417;44.788;10.334;2022-10-31T01:58:50;11.75;;;7.28;;
28174;SDS011;59417;44.788;10.334;2022-10-31T02:01:17;11.10;;;7.22;;
28174;SDS011;59417;44.788;10.334;2022-10-31T02:03:43;10.45;;;6.80;;
28174;SDS011;59417;44.788;10.334;2022-10-31T02:06:15;10.15;;;6.50;;
28174;SDS011;59417;44.788;10.334;2022-10-31T02:08:50;15.20;;;7.55;;
28174;SDS011;59417;44.788;10.334;2022-10-31T02:11:16;17.80;;;7.30;;
28174;SDS011;59417;44.788;10.334;2022-10-31T02:13:42;13.38;;;7.70;;
28174;SDS011;59417;44.788;10.334;2022-10-31T02:16:08;10.05;;;7.28;;
28174;SDS011;59417;44.788;10.334;2022-10-31T02:18:34;14.43;;;7.13;;
28174;SDS011;59417;44.788;10.334;2022-10-31T02:34:40;13.30;;;7.15;;
28174;SDS011;59417;44.788;10.334;2022-10-31T02:37:24;13.90;;;7.03;;
28174;SDS011;59417;44.788;10.334;2022-10-31T02:39:56;10.10;;;6.95;;
28174;SDS011;59417;44.788;10.334;2022-10-31T02:45:39;13.32;;;6.18;;
28174;SDS011;59417;44.788;10.334;2022-10-31T02:48:09;15.13;;;7.03;;
28174;SDS011;59417;44.788;10.334;2022-10-31T02:50:42;14.77;;;6.70;;
28174;SDS011;59417;44.788;10.334;2022-10-31T02:53:14;15.05;;;6.45;;
28174;SDS011;59417;44.788;10.334;2022-10-31T02:55:48;8.88;;;7.07;;
28174;SDS011;59417;44.788;10.334;2022-10-31T02:58:21;14.88;;;6.25;;
28174;SDS011;59417;44.788;10.334;2022-10-31T03:00:59;10.35;;;7.35;;
28174;SDS011;59417;44.788;10.334;2022-10-31T03:06:32;11.38;;;6.25;;
28174;SDS011;59417;44.788;10.334;2022-10-31T03:14:43;13.35;;;6.68;;
28174;SDS011;59417;44.788;10.334;2022-10-31T03:17:20;9.38;;;6.68;;
28174;SDS011;59417;44.788;10.334;2022-10-31T03:19:52;16.20;;;6.22;;
28174;SDS011;59417;44.788;10.334;2022-10-31T03:24:49;6.68;;;5.60;;
28174;SDS011;59417;44.788;10.334;2022-10-31T03:27:19;10.43;;;6.78;;
28174;SDS011;59417;44.788;10.334;2022-10-31T03:29:48;9.65;;;6.18;;
28174;SDS011;59417;44.788;10.334;2022-10-31T03:32:19;15.68;;;6.75;;
28174;SDS011;59417;44.788;10.334;2022-10-31T03:34:50;7.72;;;5.72;;
28174;SDS011;59417;44.788;10.334;2022-10-31T03:37:19;10.75;;;6.90;;
28174;SDS011;59417;44.788;10.334;2022-10-31T03:39:46;12.18;;;6.30;;
28174;SDS011;59417;44.788;10.334;2022-10-31T03:42:15;8.65;;;6.50;;
28174;SDS011;59417;44.788;10.334;2022-10-31T03:44:49;11.48;;;6.75;;
28174;SDS011;59417;44.788;10.334;2022-10-31T03:47:21;12.55;;;6.05;;
28174;SDS011;59417;44.788;10.334;2022-10-31T03:49:47;10.05;;;6.13;;
28174;SDS011;59417;44.788;10.334;2022-10-31T03:54:53;10.13;;;6.03;;
28174;SDS011;59417;44.788;10.334;2022-10-31T03:57:49;10.93;;;5.75;;
28174;SDS011;59417;44.788;10.334;2022-10-31T04:00:28;9.23;;;5.20;;
28174;SDS011;59417;44.788;10.334;2022-10-31T04:02:58;10.98;;;5.50;;
28174;SDS011;59417;44.788;10.334;2022-10-31T04:05:49;12.05;;;6.55;;
28174;SDS011;59417;44.788;10.334;2022-10-31T04:08:18;11.37;;;6.30;;
28174;SDS011;59417;44.788;10.334;2022-10-31T04:10:49;8.60;;;5.93;;
28174;SDS011;59417;44.788;10.334;2022-10-31T04:13:19;10.10;;;6.07;;
28174;SDS011;59417;44.788;10.334;2022-10-31T04:15:57;8.85;;;5.30;;
28174;SDS011;59417;44.788;10.334;2022-10-31T04:18:24;9.10;;;5.22;;
28174;SDS011;59417;44.788;10.334;2022-10-31T04:20:58;8.40;;;5.35;;
28174;SDS011;59417;44.788;10.334;2022-10-31T04:23:26;9.13;;;5.47;;
28174;SDS011;59417;44.788;10.334;2022-10-31T04:25:53;7.75;;;5.18;;
28174;SDS011;59417;44.788;10.334;2022-10-31T04:28:18;6.45;;;4.45;;
28174;SDS011;59417;44.788;10.334;2022-10-31T04:30:44;9.15;;;5.75;;
28174;SDS011;59417;44.788;10.334;2022-10-31T04:33:10;10.70;;;5.13;;
28174;SDS011;59417;44.788;10.334;2022-10-31T04:35:36;10.05;;;5.47;;
28174;SDS011;59417;44.788;10.334;2022-10-31T04:38:01;9.40;;;5.47;;
28174;SDS011;59417;44.788;10.334;2022-10-31T04:40:27;7.05;;;4.80;;
28174;SDS011;59417;44.788;10.334;2022-10-31T04:43:16;10.20;;;5.53;;
28174;SDS011;59417;44.788;10.334;2022-10-31T04:45:43;7.72;;;5.07;;
28174;SDS011;59417;44.788;10.334;2022-10-31T04:48:10;8.43;;;5.32;;
28174;SDS011;59417;44.788;10.334;2022-10-31T04:50:38;7.15;;;5.15;;
28174;SDS011;59417;44.788;10.334;2022-10-31T04:53:03;8.70;;;5.32;;
28174;SDS011;59417;44.788;10.334;2022-10-31T04:55:37;8.27;;;4.95;;
28174;SDS011;59417;44.788;10.334;2022-10-31T04:58:16;12.95;;;5.57;;
28174;SDS011;59417;44.788;10.334;2022-10-31T05:00:42;10.25;;;4.88;;
28174;SDS011;59417;44.788;10.334;2022-10-31T05:03:08;7.90;;;5.22;;
28174;SDS011;59417;44.788;10.334;2022-10-31T05:05:34;13.20;;;5.50;;
28174;SDS011;59417;44.788;10.334;2022-10-31T05:08:02;9.15;;;5.43;;
28174;SDS011;59417;44.788;10.334;2022-10-31T05:10:29;8.65;;;5.32;;
28174;SDS011;59417;44.788;10.334;2022-10-31T05:12:59;8.38;;;4.95;;
28174;SDS011;59417;44.788;10.334;2022-10-31T05:15:49;11.98;;;5.45;;
28174;SDS011;59417;44.788;10.334;2022-10-31T05:18:44;10.65;;;5.78;;
28174;SDS011;59417;44.788;10.334;2022-10-31T05:21:15;9.70;;;4.88;;
28174;SDS011;59417;44.788;10.334;2022-10-31T05:23:48;7.68;;;5.18;;
28174;SDS011;59417;44.788;10.334;2022-10-31T05:26:14;8.35;;;5.60;;
28174;SDS011;59417;44.788;10.334;2022-10-31T05:28:40;9.95;;;5.72;;
28174;SDS011;59417;44.788;10.334;2022-10-31T05:31:06;8.93;;;5.32;;
28174;SDS011;59417;44.788;10.334;2022-10-31T05:33:31;10.10;;;5.20;;
28174;SDS011;59417;44.788;10.334;2022-10-31T05:36:09;9.25;;;5.18;;
28174;SDS011;59417;44.788;10.334;2022-10-31T05:38:56;8.30;;;4.85;;
28174;SDS011;59417;44.788;10.334;2022-10-31T05:41:24;8.05;;;5.78;;
28174;SDS011;59417;44.788;10.334;2022-10-31T05:43:51;8.45;;;5.55;;
28174;SDS011;59417;44.788;10.334;2022-10-31T05:46:22;7.90;;;5.57;;
28174;SDS011;59417;44.788;10.334;2022-10-31T05:49:06;10.10;;;6.28;;
28174;SDS011;59417;44.788;10.334;2022-10-31T05:51:50;10.82;;;5.57;;
28174;SDS011;59417;44.788;10.334;2022-10-31T05:54:16;13.80;;;6.00;;
28174;SDS011;59417;44.788;10.334;2022-10-31T05:56:44;8.93;;;5.40;;
28174;SDS011;59417;44.788;10.334;2022-10-31T05:59:10;8.25;;;5.90;;
28174;SDS011;59417;44.788;10.334;2022-10-31T06:01:35;12.32;;;5.95;;
28174;SDS011;59417;44.788;10.334;2022-10-31T06:04:04;7.40;;;5.60;;
28174;SDS011;59417;44.788;10.334;2022-10-31T06:06:31;10.30;;;5.50;;
28174;SDS011;59417;44.788;10.334;2022-10-31T06:08:56;9.82;;;6.07;;
28174;SDS011;59417;44.788;10.334;2022-10-31T06:11:23;10.35;;;6.03;;
28174;SDS011;59417;44.788;10.334;2022-10-31T06:14:01;9.50;;;5.25;;
28174;SDS011;59417;44.788;10.334;2022-10-31T06:16:42;17.05;;;5.65;;
28174;SDS011;59417;44.788;10.334;2022-10-31T06:19:26;6.90;;;5.20;;
28174;SDS011;59417;44.788;10.334;2022-10-31T06:21:51;9.73;;;5.75;;
28174;SDS011;59417;44.788;10.334;2022-10-31T06:24:18;9.65;;;5.50;;
28174;SDS011;59417;44.788;10.334;2022-10-31T06:26:52;12.88;;;6.43;;
28174;SDS011;59417;44.788;10.334;2022-10-31T06:29:19;10.82;;;6.82;;
28174;SDS011;59417;44.788;10.334;2022-10-31T06:31:56;17.85;;;7.13;;
28174;SDS011;59417;44.788;10.334;2022-10-31T06:34:22;9.95;;;5.88;;
28174;SDS011;59417;44.788;10.334;2022-10-31T06:36:48;14.55;;;6.30;;
28174;SDS011;59417;44.788;10.334;2022-10-31T06:39:14;12.82;;;6.82;;
28174;SDS011;59417;44.788;10.334;2022-10-31T06:41:40;11.65;;;5.63;;
28174;SDS011;59417;44.788;10.334;2022-10-31T06:44:08;14.60;;;6.80;;
28174;SDS011;59417;44.788;10.334;2022-10-31T06:46:52;19.15;;;7.15;;
28174;SDS011;59417;44.788;10.334;2022-10-31T06:49:37;12.90;;;6.07;;
28174;SDS011;59417;44.788;10.334;2022-10-31T06:52:08;10.45;;;5.82;;
28174;SDS011;59417;44.788;10.334;2022-10-31T06:54:34;14.95;;;6.70;;
28174;SDS011;59417;44.788;10.334;2022-10-31T06:56:59;10.10;;;6.70;;
28174;SDS011;59417;44.788;10.334;2022-10-31T06:59:26;9.88;;;5.60;;
28174;SDS011;59417;44.788;10.334;2022-10-31T07:02:10;18.55;;;6.15;;
28174;SDS011;59417;44.788;10.334;2022-10-31T07:04:41;16.30;;;6.65;;
28174;SDS011;59417;44.788;10.334;2022-10-31T07:07:07;22.20;;;7.03;;
28174;SDS011;59417;44.788;10.334;2022-10-31T07:09:35;19.23;;;6.85;;
28174;SDS011;59417;44.788;10.334;2022-10-31T07:12:02;17.45;;;7.30;;
28174;SDS011;59417;44.788;10.334;2022-10-31T07:14:31;13.82;;;7.18;;
28174;SDS011;59417;44.788;10.334;2022-10-31T07:16:56;14.00;;;5.95;;
28174;SDS011;59417;44.788;10.334;2022-10-31T07:19:29;9.52;;;5.40;;
28174;SDS011;59417;44.788;10.334;2022-10-31T07:21:56;11.95;;;5.63;;
28174;SDS011;59417;44.788;10.334;2022-10-31T07:24:26;11.63;;;6.60;;
28174;SDS011;59417;44.788;10.334;2022-10-31T07:27:24;10.05;;;5.53;;
28174;SDS011;59417;44.788;10.334;2022-10-31T07:29:50;13.13;;;5.97;;
28174;SDS011;59417;44.788;10.334;2022-10-31T07:32:16;10.65;;;5.93;;
28174;SDS011;59417;44.788;10.334;2022-10-31T07:34:47;12.95;;;4.65;;
28174;SDS011;59417;44.788;10.334;2022-10-31T07:37:36;8.38;;;4.90;;
28174;SDS011;59417;44.788;10.334;2022-10-31T07:40:03;10.25;;;5.22;;
28174;SDS011;59417;44.788;10.334;2022-10-31T07:42:37;10.55;;;4.97;;
28174;SDS011;59417;44.788;10.334;2022-10-31T07:45:25;8.60;;;4.65;;
28174;SDS011;59417;44.788;10.334;2022-10-31T07:48:22;12.35;;;5.53;;
28174;SDS011;59417;44.788;10.334;2022-10-31T07:51:06;12.82;;;5.00;;
28174;SDS011;59417;44.788;10.334;2022-10-31T07:53:50;12.57;;;5.15;;
28174;SDS011;59417;44.788;10.334;2022-10-31T07:56:23;11.15;;;5.20;;
28174;SDS011;59417;44.788;10.334;2022-10-31T07:58:48;8.70;;;5.28;;
28174;SDS011;59417;44.788;10.334;2022-10-31T08:01:14;12.43;;;5.10;;
28174;SDS011;59417;44.788;10.334;2022-10-31T08:03:47;13.50;;;5.82;;
28174;SDS011;59417;44.788;10.334;2022-10-31T08:06:31;13.18;;;5.80;;
28174;SDS011;59417;44.788;10.334;2022-10-31T08:09:15;13.25;;;6.13;;
28174;SDS011;59417;44.788;10.334;2022-10-31T08:11:42;11.00;;;5.88;;
28174;SDS011;59417;44.788;10.334;2022-10-31T08:14:08;10.80;;;5.50;;
28174;SDS011;59417;44.788;10.334;2022-10-31T08:16:34;13.25;;;5.97;;
28174;SDS011;59417;44.788;10.334;2022-10-31T08:19:02;12.43;;;5.78;;
28174;SDS011;59417;44.788;10.334;2022-10-31T08:21:32;11.10;;;5.80;;
28174;SDS011;59417;44.788;10.334;2022-10-31T08:23:59;13.35;;;5.97;;
28174;SDS011;59417;44.788;10.334;2022-10-31T08:26:25;11.45;;;5.90;;
28174;SDS011;59417;44.788;10.334;2022-10-31T08:28:53;10.43;;;5.90;;
28174;SDS011;59417;44.788;10.334;2022-10-31T08:31:20;15.38;;;5.95;;
28174;SDS011;59417;44.788;10.334;2022-10-31T08:33:46;12.60;;;6.38;;
28174;SDS011;59417;44.788;10.334;2022-10-31T08:36:31;11.90;;;6.70;;
28174;SDS011;59417;44.788;10.334;2022-10-31T08:39:13;11.98;;;6.22;;
28174;SDS011;59417;44.788;10.334;2022-10-31T08:41:39;16.00;;;6.50;;
28174;SDS011;59417;44.788;10.334;2022-10-31T08:44:09;15.95;;;6.50;;
28174;SDS011;59417;44.788;10.334;2022-10-31T08:46:36;15.32;;;7.53;;
28174;SDS011;59417;44.788;10.334;2022-10-31T08:49:02;13.15;;;7.45;;
28174;SDS011;59417;44.788;10.334;2022-10-31T08:51:29;13.85;;;7.57;;
28174;SDS011;59417;44.788;10.334;2022-10-31T08:53:56;21.08;;;9.13;;
28174;SDS011;59417;44.788;10.334;2022-10-31T08:56:24;17.33;;;7.18;;
28174;SDS011;59417;44.788;10.334;2022-10-31T08:58:52;15.13;;;7.22;;
28174;SDS011;59417;44.788;10.334;2022-10-31T09:01:24;16.13;;;8.43;;
28174;SDS011;59417;44.788;10.334;2022-10-31T09:03:50;18.70;;;7.82;;
28174;SDS011;59417;44.788;10.334;2022-10-31T09:06:15;18.52;;;7.47;;
28174;SDS011;59417;44.788;10.334;2022-10-31T09:08:41;15.55;;;7.40;;
28174;SDS011;59417;44.788;10.334;2022-10-31T09:11:07;19.17;;;9.20;;
28174;SDS011;59417;44.788;10.334;2022-10-31T09:13:59;18.98;;;9.95;;
28174;SDS011;59417;44.788;10.334;2022-10-31T09:16:27;16.33;;;10.13;;
28174;SDS011;59417;44.788;10.334;2022-10-31T09:18:53;17.10;;;9.45;;
28174;SDS011;59417;44.788;10.334;2022-10-31T09:21:19;18.05;;;9.90;;
28174;SDS011;59417;44.788;10.334;2022-10-31T09:23:45;26.25;;;10.65;;
28174;SDS011;59417;44.788;10.334;2022-10-31T09:26:11;16.38;;;9.93;;
28174;SDS011;59417;44.788;10.334;2022-10-31T09:28:44;22.92;;;10.35;;
28174;SDS011;59417;44.788;10.334;2022-10-31T09:31:13;19.80;;;11.70;;
28174;SDS011;59417;44.788;10.334;2022-10-31T09:33:47;23.73;;;12.48;;
28174;SDS011;59417;44.788;10.334;2022-10-31T09:36:31;19.65;;;12.02;;
28174;SDS011;59417;44.788;10.334;2022-10-31T09:38:57;23.05;;;11.52;;
28174;SDS011;59417;44.788;10.334;2022-10-31T09:44:03;21.50;;;12.63;;
28174;SDS011;59417;44.788;10.334;2022-10-31T09:47:00;22.55;;;11.93;;
28174;SDS011;59417;44.788;10.334;2022-10-31T09:50:21;20.00;;;11.23;;
28174;SDS011;59417;44.788;10.334;2022-10-31T09:55:47;22.60;;;12.35;;
28174;SDS011;59417;44.788;10.334;2022-10-31T09:58:24;24.48;;;13.50;;
28174;SDS011;59417;44.788;10.334;2022-10-31T10:00:53;19.95;;;13.00;;
28174;SDS011;59417;44.788;10.334;2022-10-31T10:06:50;29.33;;;14.95;;
28174;SDS011;59417;44.788;10.334;2022-10-31T10:09:24;21.55;;;14.23;;
28174;SDS011;59417;44.788;10.334;2022-10-31T10:12:15;25.13;;;13.95;;
28174;SDS011;59417;44.788;10.334;2022-10-31T10:17:31;28.60;;;17.58;;
28174;SDS011;59417;44.788;10.334;2022-10-31T10:25:23;30.38;;;16.70;;
28174;SDS011;59417;44.788;10.334;2022-10-31T10:36:33;29.65;;;17.50;;
28174;SDS011;59417;44.788;10.334;2022-10-31T10:39:20;42.03;;;18.58;;
28174;SDS011;59417;44.788;10.334;2022-10-31T10:41:50;34.25;;;18.83;;
28174;SDS011;59417;44.788;10.334;2022-10-31T10:44:43;31.38;;;17.13;;
28174;SDS011;59417;44.788;10.334;2022-10-31T10:47:52;27.95;;;18.73;;
28174;SDS011;59417;44.788;10.334;2022-10-31T10:50:34;33.90;;;17.90;;
28174;SDS011;59417;44.788;10.334;2022-10-31T10:53:07;40.40;;;18.48;;
28174;SDS011;59417;44.788;10.334;2022-10-31T10:55:58;33.55;;;19.95;;
28174;SDS011;59417;44.788;10.334;2022-10-31T10:58:34;34.88;;;20.20;;
28174;SDS011;59417;44.788;10.334;2022-10-31T11:01:08;35.90;;;19.63;;
28174;SDS011;59417;44.788;10.334;2022-10-31T11:03:37;42.55;;;21.48;;
28174;SDS011;59417;44.788;10.334;2022-10-31T11:06:02;38.47;;;21.67;;
28174;SDS011;59417;44.788;10.334;2022-10-31T11:08:29;42.20;;;22.50;;
28174;SDS011;59417;44.788;10.334;2022-10-31T11:11:03;37.83;;;19.73;;
28174;SDS011;59417;44.788;10.334;2022-10-31T11:13:33;35.08;;;20.48;;
28174;SDS011;59417;44.788;10.334;2022-10-31T11:16:01;35.33;;;20.15;;
28174;SDS011;59417;44.788;10.334;2022-10-31T11:18:39;37.65;;;20.00;;
28174;SDS011;59417;44.788;10.334;2022-10-31T11:21:21;35.45;;;19.95;;
28174;SDS011;59417;44.788;10.334;2022-10-31T11:24:04;37.83;;;19.77;;
28174;SDS011;59417;44.788;10.334;2022-10-31T11:27:02;36.28;;;21.00;;
28174;SDS011;59417;44.788;10.334;2022-10-31T11:29:37;33.90;;;19.27;;
28174;SDS011;59417;44.788;10.334;2022-10-31T11:32:02;34.72;;;19.15;;
28174;SDS011;59417;44.788;10.334;2022-10-31T11:34:41;27.83;;;16.65;;
28174;SDS011;59417;44.788;10.334;2022-10-31T11:37:14;42.45;;;19.85;;
28174;SDS011;59417;44.788;10.334;2022-10-31T11:39:46;35.08;;;18.35;;
28174;SDS011;59417;44.788;10.334;2022-10-31T11:42:19;28.27;;;18.05;;
28174;SDS011;59417;44.788;10.334;2022-10-31T11:44:50;29.00;;;18.15;;
28174;SDS011;59417;44.788;10.334;2022-10-31T11:47:17;26.17;;;17.40;;
28174;SDS011;59417;44.788;10.334;2022-10-31T11:49:47;34.30;;;18.80;;
28174;SDS011;59417;44.788;10.334;2022-10-31T11:52:21;37.08;;;19.75;;
28174;SDS011;59417;44.788;10.334;2022-10-31T11:57:43;39.08;;;20.50;;
28174;SDS011;59417;44.788;10.334;2022-10-31T12:03:04;34.17;;;18.80;;
28174;SDS011;59417;44.788;10.334;2022-10-31T12:05:49;39.53;;;20.88;;
28174;SDS011;59417;44.788;10.334;2022-10-31T12:08:21;41.97;;;21.27;;
28174;SDS011;59417;44.788;10.334;2022-10-31T12:11:33;33.65;;;20.27;;
28174;SDS011;59417;44.788;10.334;2022-10-31T12:13:58;30.40;;;17.20;;
28174;SDS011;59417;44.788;10.334;2022-10-31T12:24:15;34.60;;;19.77;;
28174;SDS011;59417;44.788;10.334;2022-10-31T12:29:35;32.80;;;19.80;;
28174;SDS011;59417;44.788;10.334;2022-10-31T12:43:24;29.88;;;17.75;;
28174;SDS011;59417;44.788;10.334;2022-10-31T12:45:58;30.63;;;19.25;;
28174;SDS011;59417;44.788;10.334;2022-10-31T12:59:31;28.20;;;18.65;;
28174;SDS011;59417;44.788;10.334;2022-10-31T13:02:10;29.15;;;16.88;;
28174;SDS011;59417;44.788;10.334;2022-10-31T13:04:49;31.50;;;19.17;;
28174;SDS011;59417;44.788;10.334;2022-10-31T13:07:20;31.95;;;18.98;;
28174;SDS011;59417;44.788;10.334;2022-10-31T13:12:48;35.55;;;21.40;;
28174;SDS011;59417;44.788;10.334;2022-10-31T13:15:21;33.85;;;18.42;;
28174;SDS011;59417;44.788;10.334;2022-10-31T13:17:56;31.88;;;17.88;;
28174;SDS011;59417;44.788;10.334;2022-10-31T13:23:37;29.38;;;17.55;;
28174;SDS011;59417;44.788;10.334;2022-10-31T13:25:56;32.03;;;17.90;;
28174;SDS011;59417;44.788;10.334;2022-10-31T13:28:35;32.00;;;17.83;;
28174;SDS011;59417;44.788;10.334;2022-10-31T13:31:05;33.45;;;15.75;;
28174;SDS011;59417;44.788;10.334;2022-10-31T13:38:53;29.42;;;17.60;;
28174;SDS011;59417;44.788;10.334;2022-10-31T13:41:33;25.40;;;15.00;;
28174;SDS011;59417;44.788;10.334;2022-10-31T13:44:24;31.77;;;17.05;;
28174;SDS011;59417;44.788;10.334;2022-10-31T13:46:52;28.42;;;15.48;;
28174;SDS011;59417;44.788;10.334;2022-10-31T13:49:40;32.55;;;17.92;;
28174;SDS011;59417;44.788;10.334;2022-10-31T13:52:05;25.85;;;15.27;;
28174;SDS011;59417;44.788;10.334;2022-10-31T13:54:44;26.63;;;14.40;;
28174;SDS011;59417;44.788;10.334;2022-10-31T13:57:21;24.13;;;12.90;;
28174;SDS011;59417;44.788;10.334;2022-10-31T13:59:51;25.23;;;14.93;;
28174;SDS011;59417;44.788;10.334;2022-10-31T14:02:26;25.75;;;15.20;;
28174;SDS011;59417;44.788;10.334;2022-10-31T14:04:56;29.70;;;14.55;;
28174;SDS011;59417;44.788;10.334;2022-10-31T14:07:26;28.23;;;14.80;;
28174;SDS011;59417;44.788;10.334;2022-10-31T14:10:07;29.98;;;14.55;;
28174;SDS011;59417;44.788;10.334;2022-10-31T14:13:02;27.20;;;14.00;;
28174;SDS011;59417;44.788;10.334;2022-10-31T14:15:33;23.77;;;13.35;;
28174;SDS011;59417;44.788;10.334;2022-10-31T14:18:03;24.48;;;13.65;;
28174;SDS011;59417;44.788;10.334;2022-10-31T14:20:39;24.65;;;12.90;;
28174;SDS011;59417;44.788;10.334;2022-10-31T14:25:53;24.52;;;12.48;;
28174;SDS011;59417;44.788;10.334;2022-10-31T14:28:20;19.98;;;11.20;;
28174;SDS011;59417;44.788;10.334;2022-10-31T14:31:24;19.85;;;11.00;;
28174;SDS011;59417;44.788;10.334;2022-10-31T14:34:18;26.02;;;14.48;;
28174;SDS011;59417;44.788;10.334;2022-10-31T14:48:12;24.30;;;11.20;;
28174;SDS011;59417;44.788;10.334;2022-10-31T14:51:12;25.90;;;10.68;;
28174;SDS011;59417;44.788;10.334;2022-10-31T14:53:46;34.20;;;13.25;;
28174;SDS011;59417;44.788;10.334;2022-10-31T14:56:16;25.25;;;12.93;;
28174;SDS011;59417;44.788;10.334;2022-10-31T14:58:49;21.40;;;11.68;;
28174;SDS011;59417;44.788;10.334;2022-10-31T15:01:34;21.75;;;11.00;;
28174;SDS011;59417;44.788;10.334;2022-10-31T15:04:07;28.63;;;13.30;;
28174;SDS011;59417;44.788;10.334;2022-10-31T15:06:43;24.30;;;10.95;;
28174;SDS011;59417;44.788;10.334;2022-10-31T15:09:25;25.55;;;11.07;;
28174;SDS011;59417;44.788;10.334;2022-10-31T15:12:00;19.05;;;10.52;;
28174;SDS011;59417;44.788;10.334;2022-10-31T15:14:42;18.73;;;10.38;;
28174;SDS011;59417;44.788;10.334;2022-10-31T15:17:18;22.58;;;10.70;;
28174;SDS011;59417;44.788;10.334;2022-10-31T15:19:45;29.42;;;10.85;;
28174;SDS011;59417;44.788;10.334;2022-10-31T15:22:13;27.85;;;10.98;;
28174;SDS011;59417;44.788;10.334;2022-10-31T15:24:41;20.85;;;10.77;;
28174;SDS011;59417;44.788;10.334;2022-10-31T15:27:11;24.70;;;10.85;;
28174;SDS011;59417;44.788;10.334;2022-10-31T15:29:47;23.87;;;12.17;;
28174;SDS011;59417;44.788;10.334;2022-10-31T15:32:21;22.92;;;12.48;;
28174;SDS011;59417;44.788;10.334;2022-10-31T15:34:49;21.65;;;11.35;;
28174;SDS011;59417;44.788;10.334;2022-10-31T15:37:25;20.75;;;12.68;;
28174;SDS011;59417;44.788;10.334;2022-10-31T15:44:28;24.45;;;11.48;;
28174;SDS011;59417;44.788;10.334;2022-10-31T15:54:35;30.90;;;12.93;;
28174;SDS011;59417;44.788;10.334;2022-10-31T15:57:13;27.00;;;12.70;;
28174;SDS011;59417;44.788;10.334;2022-10-31T15:59:40;24.67;;;11.45;;
28174;SDS011;59417;44.788;10.334;2022-10-31T16:02:10;19.95;;;11.80;;
28174;SDS011;59417;44.788;10.334;2022-10-31T16:04:47;24.95;;;12.82;;
28174;SDS011;59417;44.788;10.334;2022-10-31T16:07:18;24.00;;;11.82;;
28174;SDS011;59417;44.788;10.334;2022-10-31T16:09:51;22.33;;;12.20;;
28174;SDS011;59417;44.788;10.334;2022-10-31T16:12:21;22.30;;;12.68;;
28174;SDS011;59417;44.788;10.334;2022-10-31T16:14:49;21.98;;;12.25;;
28174;SDS011;59417;44.788;10.334;2022-10-31T16:17:17;27.50;;;13.15;;
28174;SDS011;59417;44.788;10.334;2022-10-31T16:19:49;24.10;;;11.43;;
28174;SDS011;59417;44.788;10.334;2022-10-31T16:22:21;22.52;;;11.95;;
28174;SDS011;59417;44.788;10.334;2022-10-31T16:27:27;22.23;;;11.70;;
28174;SDS011;59417;44.788;10.334;2022-10-31T16:29:58;31.38;;;12.50;;
28174;SDS011;59417;44.788;10.334;2022-10-31T16:35:18;36.00;;;13.02;;
28174;SDS011;59417;44.788;10.334;2022-10-31T16:38:00;27.77;;;12.52;;
28174;SDS011;59417;44.788;10.334;2022-10-31T16:40:27;31.17;;;12.80;;
28174;SDS011;59417;44.788;10.334;2022-10-31T16:42:53;29.67;;;13.80;;
28174;SDS011;59417;44.788;10.334;2022-10-31T16:45:23;38.20;;;13.88;;
28174;SDS011;59417;44.788;10.334;2022-10-31T16:47:50;23.42;;;12.85;;
28174;SDS011;59417;44.788;10.334;2022-10-31T16:50:18;30.90;;;15.05;;
28174;SDS011;59417;44.788;10.334;2022-10-31T16:52:55;27.65;;;13.38;;
28174;SDS011;59417;44.788;10.334;2022-10-31T16:55:21;31.13;;;12.93;;
28174;SDS011;59417;44.788;10.334;2022-10-31T16:57:50;32.85;;;13.65;;
28174;SDS011;59417;44.788;10.334;2022-10-31T17:00:18;28.33;;;13.45;;
28174;SDS011;59417;44.788;10.334;2022-10-31T17:02:46;25.45;;;13.65;;
28174;SDS011;59417;44.788;10.334;2022-10-31T17:05:14;24.33;;;13.48;;